sensor_id;sensor_type;location;lat;lon;timestamp;temperature;humidity
77727;SHT30;68312;53.502;10.030;2023-06-04T00:01:58;8.80;80.54
77727;SHT30;68312;53.502;10.030;2023-06-04T00:04:25;8.81;80.22
77727;SHT30;68312;53.502;10.030;2023-06-04T00:06:51;8.84;80.32
77727;SHT30;68312;53.502;10.030;2023-06-04T00:09:17;8.85;80.29
77727;SHT30;68312;53.502;10.030;2023-06-04T00:11:42;8.87;80.13
77727;SHT30;68312;53.502;10.030;2023-06-04T00:14:08;8.83;80.05
77727;SHT30;68312;53.502;10.030;2023-06-04T00:16:33;8.72;80.10
77727;SHT30;68312;53.502;10.030;2023-06-04T00:18:59;8.63;80.79
77727;SHT30;68312;53.502;10.030;2023-06-04T00:21:24;8.60;81.62
77727;SHT30;68312;53.502;10.030;2023-06-04T00:23:53;8.55;81.87
77727;SHT30;68312;53.502;10.030;2023-06-04T00:26:21;8.50;81.99
77727;SHT30;68312;53.502;10.030;2023-06-04T00:28:47;8.39;83.02
77727;SHT30;68312;53.502;10.030;2023-06-04T00:31:12;8.36;83.92
77727;SHT30;68312;53.502;10.030;2023-06-04T00:33:41;8.36;85.20
77727;SHT30;68312;53.502;10.030;2023-06-04T00:36:07;8.33;85.15
77727;SHT30;68312;53.502;10.030;2023-06-04T00:38:33;8.29;84.96
77727;SHT30;68312;53.502;10.030;2023-06-04T00:40:58;8.25;84.60
77727;SHT30;68312;53.502;10.030;2023-06-04T00:43:24;8.18;84.70
77727;SHT30;68312;53.502;10.030;2023-06-04T00:45:49;8.18;84.92
77727;SHT30;68312;53.502;10.030;2023-06-04T00:48:15;8.16;85.30
77727;SHT30;68312;53.502;10.030;2023-06-04T00:50:41;8.16;86.18
77727;SHT30;68312;53.502;10.030;2023-06-04T00:53:07;8.11;86.17
77727;SHT30;68312;53.502;10.030;2023-06-04T00:55:32;8.14;86.07
77727;SHT30;68312;53.502;10.030;2023-06-04T00:57:58;8.16;86.09
77727;SHT30;68312;53.502;10.030;2023-06-04T01:00:23;8.21;85.18
77727;SHT30;68312;53.502;10.030;2023-06-04T01:02:51;8.12;84.94
77727;SHT30;68312;53.502;10.030;2023-06-04T01:05:30;8.08;85.50
77727;SHT30;68312;53.502;10.030;2023-06-04T01:08:01;8.04;85.84
77727;SHT30;68312;53.502;10.030;2023-06-04T01:10:28;8.01;86.49
77727;SHT30;68312;53.502;10.030;2023-06-04T01:12:53;7.97;86.38
77727;SHT30;68312;53.502;10.030;2023-06-04T01:15:19;7.94;86.33
77727;SHT30;68312;53.502;10.030;2023-06-04T01:17:49;7.90;86.11
77727;SHT30;68312;53.502;10.030;2023-06-04T01:23:24;7.98;86.18
77727;SHT30;68312;53.502;10.030;2023-06-04T01:25:54;8.06;85.61
77727;SHT30;68312;53.502;10.030;2023-06-04T01:28:20;8.08;85.33
77727;SHT30;68312;53.502;10.030;2023-06-04T01:30:46;8.12;85.14
77727;SHT30;68312;53.502;10.030;2023-06-04T01:33:18;8.06;84.83
77727;SHT30;68312;53.502;10.030;2023-06-04T01:35:44;8.04;84.46
77727;SHT30;68312;53.502;10.030;2023-06-04T01:38:10;7.99;84.34
77727;SHT30;68312;53.502;10.030;2023-06-04T01:40:36;7.90;84.36
77727;SHT30;68312;53.502;10.030;2023-06-04T01:43:02;7.81;84.52
77727;SHT30;68312;53.502;10.030;2023-06-04T01:45:29;7.77;84.68
77727;SHT30;68312;53.502;10.030;2023-06-04T01:47:55;7.73;84.89
77727;SHT30;68312;53.502;10.030;2023-06-04T01:50:21;7.71;84.98
77727;SHT30;68312;53.502;10.030;2023-06-04T01:52:47;7.66;85.26
77727;SHT30;68312;53.502;10.030;2023-06-04T01:55:17;7.64;85.77
77727;SHT30;68312;53.502;10.030;2023-06-04T01:57:44;7.60;86.34
77727;SHT30;68312;53.502;10.030;2023-06-04T02:00:12;7.56;86.83
77727;SHT30;68312;53.502;10.030;2023-06-04T02:02:41;7.50;87.31
77727;SHT30;68312;53.502;10.030;2023-06-04T02:05:08;7.46;87.39
77727;SHT30;68312;53.502;10.030;2023-06-04T02:07:36;7.43;87.50
77727;SHT30;68312;53.502;10.030;2023-06-04T02:10:13;7.46;87.59
77727;SHT30;68312;53.502;10.030;2023-06-04T02:12:52;7.40;87.80
77727;SHT30;68312;53.502;10.030;2023-06-04T02:15:24;7.36;87.90
77727;SHT30;68312;53.502;10.030;2023-06-04T02:17:54;7.33;87.97
77727;SHT30;68312;53.502;10.030;2023-06-04T02:20:21;7.32;87.88
77727;SHT30;68312;53.502;10.030;2023-06-04T02:22:47;7.36;87.76
77727;SHT30;68312;53.502;10.030;2023-06-04T02:25:12;7.39;87.67
77727;SHT30;68312;53.502;10.030;2023-06-04T02:27:38;7.33;87.59
77727;SHT30;68312;53.502;10.030;2023-06-04T02:30:04;7.32;87.53
77727;SHT30;68312;53.502;10.030;2023-06-04T02:32:30;7.27;87.76
77727;SHT30;68312;53.502;10.030;2023-06-04T02:34:56;7.26;87.84
77727;SHT30;68312;53.502;10.030;2023-06-04T02:37:21;7.20;87.85
77727;SHT30;68312;53.502;10.030;2023-06-04T02:39:47;7.22;88.08
77727;SHT30;68312;53.502;10.030;2023-06-04T02:42:12;7.18;88.21
77727;SHT30;68312;53.502;10.030;2023-06-04T02:44:38;7.18;87.93
77727;SHT30;68312;53.502;10.030;2023-06-04T02:47:04;7.19;87.98
77727;SHT30;68312;53.502;10.030;2023-06-04T02:49:29;7.16;87.95
77727;SHT30;68312;53.502;10.030;2023-06-04T02:51:55;7.18;88.08
77727;SHT30;68312;53.502;10.030;2023-06-04T02:54:23;7.15;87.99
77727;SHT30;68312;53.502;10.030;2023-06-04T02:56:50;7.16;88.25
77727;SHT30;68312;53.502;10.030;2023-06-04T02:59:15;7.19;88.44
77727;SHT30;68312;53.502;10.030;2023-06-04T03:01:41;7.20;88.81
77727;SHT30;68312;53.502;10.030;2023-06-04T03:04:06;7.25;89.28
77727;SHT30;68312;53.502;10.030;2023-06-04T03:06:32;7.27;89.60
77727;SHT30;68312;53.502;10.030;2023-06-04T03:08:57;7.32;89.76
77727;SHT30;68312;53.502;10.030;2023-06-04T03:11:23;7.33;89.69
77727;SHT30;68312;53.502;10.030;2023-06-04T03:13:51;7.35;89.65
77727;SHT30;68312;53.502;10.030;2023-06-04T03:16:17;7.39;89.80
77727;SHT30;68312;53.502;10.030;2023-06-04T03:18:43;7.37;90.05
77727;SHT30;68312;53.502;10.030;2023-06-04T03:21:09;7.37;90.33
77727;SHT30;68312;53.502;10.030;2023-06-04T03:23:34;7.35;90.43
77727;SHT30;68312;53.502;10.030;2023-06-04T03:26:04;7.29;90.41
77727;SHT30;68312;53.502;10.030;2023-06-04T03:28:34;7.30;90.50
77727;SHT30;68312;53.502;10.030;2023-06-04T03:30:59;7.29;90.52
77727;SHT30;68312;53.502;10.030;2023-06-04T03:33:25;7.27;90.53
77727;SHT30;68312;53.502;10.030;2023-06-04T03:35:52;7.30;90.64
77727;SHT30;68312;53.502;10.030;2023-06-04T03:38:19;7.35;90.80
77727;SHT30;68312;53.502;10.030;2023-06-04T03:40:45;7.32;90.68
77727;SHT30;68312;53.502;10.030;2023-06-04T03:43:11;7.35;90.67
77727;SHT30;68312;53.502;10.030;2023-06-04T03:45:37;7.36;90.68
77727;SHT30;68312;53.502;10.030;2023-06-04T03:48:03;7.37;90.64
77727;SHT30;68312;53.502;10.030;2023-06-04T03:50:28;7.40;90.62
77727;SHT30;68312;53.502;10.030;2023-06-04T03:52:57;7.39;90.64
77727;SHT30;68312;53.502;10.030;2023-06-04T03:55:22;7.42;90.66
77727;SHT30;68312;53.502;10.030;2023-06-04T03:57:48;7.45;90.75
77727;SHT30;68312;53.502;10.030;2023-06-04T04:00:14;7.50;90.77
77727;SHT30;68312;53.502;10.030;2023-06-04T04:02:41;7.52;90.80
77727;SHT30;68312;53.502;10.030;2023-06-04T04:05:09;7.60;90.84
77727;SHT30;68312;53.502;10.030;2023-06-04T04:07:35;7.64;90.82
77727;SHT30;68312;53.502;10.030;2023-06-04T04:10:01;7.71;90.79
77727;SHT30;68312;53.502;10.030;2023-06-04T04:12:27;7.73;90.55
77727;SHT30;68312;53.502;10.030;2023-06-04T04:14:52;7.78;90.50
77727;SHT30;68312;53.502;10.030;2023-06-04T04:17:17;7.87;90.43
77727;SHT30;68312;53.502;10.030;2023-06-04T04:19:43;7.90;90.28
77727;SHT30;68312;53.502;10.030;2023-06-04T04:22:10;7.95;89.84
77727;SHT30;68312;53.502;10.030;2023-06-04T04:24:36;8.11;89.09
77727;SHT30;68312;53.502;10.030;2023-06-04T04:27:01;8.22;88.57
77727;SHT30;68312;53.502;10.030;2023-06-04T04:29:26;8.35;88.15
77727;SHT30;68312;53.502;10.030;2023-06-04T04:31:52;8.45;88.38
77727;SHT30;68312;53.502;10.030;2023-06-04T04:34:18;8.52;88.30
77727;SHT30;68312;53.502;10.030;2023-06-04T04:36:43;8.62;87.71
77727;SHT30;68312;53.502;10.030;2023-06-04T04:39:09;8.72;87.40
77727;SHT30;68312;53.502;10.030;2023-06-04T04:41:35;8.88;87.08
77727;SHT30;68312;53.502;10.030;2023-06-04T04:44:05;9.05;86.59
77727;SHT30;68312;53.502;10.030;2023-06-04T04:46:31;9.15;85.90
77727;SHT30;68312;53.502;10.030;2023-06-04T04:48:56;9.32;85.72
77727;SHT30;68312;53.502;10.030;2023-06-04T04:51:22;9.45;85.12
77727;SHT30;68312;53.502;10.030;2023-06-04T04:53:48;9.75;81.26
77727;SHT30;68312;53.502;10.030;2023-06-04T04:56:14;10.16;79.40
77727;SHT30;68312;53.502;10.030;2023-06-04T04:58:39;10.45;78.24
77727;SHT30;68312;53.502;10.030;2023-06-04T05:01:05;10.71;75.21
77727;SHT30;68312;53.502;10.030;2023-06-04T05:03:33;10.92;74.41
77727;SHT30;68312;53.502;10.030;2023-06-04T05:05:58;11.09;73.28
77727;SHT30;68312;53.502;10.030;2023-06-04T05:08:24;11.16;72.79
77727;SHT30;68312;53.502;10.030;2023-06-04T05:10:50;11.29;72.47
77727;SHT30;68312;53.502;10.030;2023-06-04T05:13:16;11.36;71.94
77727;SHT30;68312;53.502;10.030;2023-06-04T05:15:41;11.50;70.95
77727;SHT30;68312;53.502;10.030;2023-06-04T05:18:07;11.58;69.99
77727;SHT30;68312;53.502;10.030;2023-06-04T05:20:33;11.66;70.19
77727;SHT30;68312;53.502;10.030;2023-06-04T05:23:01;11.75;69.34
77727;SHT30;68312;53.502;10.030;2023-06-04T05:25:27;11.85;68.33
77727;SHT30;68312;53.502;10.030;2023-06-04T05:27:52;11.92;67.62
77727;SHT30;68312;53.502;10.030;2023-06-04T05:30:18;11.98;68.20
77727;SHT30;68312;53.502;10.030;2023-06-04T05:32:46;12.04;67.99
77727;SHT30;68312;53.502;10.030;2023-06-04T05:35:13;12.14;68.03
77727;SHT30;68312;53.502;10.030;2023-06-04T05:37:39;12.21;67.64
77727;SHT30;68312;53.502;10.030;2023-06-04T05:40:05;12.26;67.19
77727;SHT30;68312;53.502;10.030;2023-06-04T05:42:31;12.32;67.54
77727;SHT30;68312;53.502;10.030;2023-06-04T05:44:56;12.40;66.41
77727;SHT30;68312;53.502;10.030;2023-06-04T05:47:22;12.49;67.16
77727;SHT30;68312;53.502;10.030;2023-06-04T05:49:47;12.55;66.45
77727;SHT30;68312;53.502;10.030;2023-06-04T05:52:13;12.61;67.21
77727;SHT30;68312;53.502;10.030;2023-06-04T05:54:38;12.72;66.83
77727;SHT30;68312;53.502;10.030;2023-06-04T05:57:04;12.81;66.00
77727;SHT30;68312;53.502;10.030;2023-06-04T05:59:30;12.90;65.12
77727;SHT30;68312;53.502;10.030;2023-06-04T06:01:57;12.91;65.00
77727;SHT30;68312;53.502;10.030;2023-06-04T06:04:22;12.98;65.46
77727;SHT30;68312;53.502;10.030;2023-06-04T06:06:48;13.08;65.28
77727;SHT30;68312;53.502;10.030;2023-06-04T06:09:15;13.16;65.55
77727;SHT30;68312;53.502;10.030;2023-06-04T06:11:41;13.28;66.46
77727;SHT30;68312;53.502;10.030;2023-06-04T06:14:06;13.42;65.63
77727;SHT30;68312;53.502;10.030;2023-06-04T06:16:32;13.53;65.05
77727;SHT30;68312;53.502;10.030;2023-06-04T06:18:57;13.67;64.97
77727;SHT30;68312;53.502;10.030;2023-06-04T06:21:23;13.77;63.92
77727;SHT30;68312;53.502;10.030;2023-06-04T06:23:48;13.80;63.83
77727;SHT30;68312;53.502;10.030;2023-06-04T06:26:14;13.90;63.76
77727;SHT30;68312;53.502;10.030;2023-06-04T06:28:40;13.99;63.40
77727;SHT30;68312;53.502;10.030;2023-06-04T06:31:05;14.03;63.41
77727;SHT30;68312;53.502;10.030;2023-06-04T06:33:31;14.10;63.89
77727;SHT30;68312;53.502;10.030;2023-06-04T06:35:57;14.20;63.91
77727;SHT30;68312;53.502;10.030;2023-06-04T06:38:23;14.30;63.91
77727;SHT30;68312;53.502;10.030;2023-06-04T06:40:48;14.42;63.58
77727;SHT30;68312;53.502;10.030;2023-06-04T06:43:14;14.49;61.85
77727;SHT30;68312;53.502;10.030;2023-06-04T06:45:39;14.58;62.72
77727;SHT30;68312;53.502;10.030;2023-06-04T06:48:05;14.67;62.95
77727;SHT30;68312;53.502;10.030;2023-06-04T06:50:30;14.83;61.92
77727;SHT30;68312;53.502;10.030;2023-06-04T06:52:56;14.92;61.39
77727;SHT30;68312;53.502;10.030;2023-06-04T06:55:21;14.99;61.40
77727;SHT30;68312;53.502;10.030;2023-06-04T06:57:47;15.02;61.13
77727;SHT30;68312;53.502;10.030;2023-06-04T07:00:13;15.18;61.38
77727;SHT30;68312;53.502;10.030;2023-06-04T07:02:39;15.36;60.70
77727;SHT30;68312;53.502;10.030;2023-06-04T07:05:04;15.50;60.28
77727;SHT30;68312;53.502;10.030;2023-06-04T07:07:30;15.79;59.35
77727;SHT30;68312;53.502;10.030;2023-06-04T07:09:55;15.92;58.23
77727;SHT30;68312;53.502;10.030;2023-06-04T07:12:21;15.97;57.81
77727;SHT30;68312;53.502;10.030;2023-06-04T07:14:46;16.10;56.07
77727;SHT30;68312;53.502;10.030;2023-06-04T07:17:12;16.19;55.95
77727;SHT30;68312;53.502;10.030;2023-06-04T07:19:37;16.25;55.37
77727;SHT30;68312;53.502;10.030;2023-06-04T07:22:03;16.45;56.06
77727;SHT30;68312;53.502;10.030;2023-06-04T07:24:29;16.76;55.31
77727;SHT30;68312;53.502;10.030;2023-06-04T07:26:57;16.88;53.68
77727;SHT30;68312;53.502;10.030;2023-06-04T07:29:23;17.05;53.12
77727;SHT30;68312;53.502;10.030;2023-06-04T07:31:48;17.07;52.17
77727;SHT30;68312;53.502;10.030;2023-06-04T07:34:14;17.18;51.49
77727;SHT30;68312;53.502;10.030;2023-06-04T07:36:39;17.46;51.72
77727;SHT30;68312;53.502;10.030;2023-06-04T07:39:05;17.63;51.64
77727;SHT30;68312;53.502;10.030;2023-06-04T07:41:30;17.79;49.10
77727;SHT30;68312;53.502;10.030;2023-06-04T07:43:56;17.96;49.97
77727;SHT30;68312;53.502;10.030;2023-06-04T07:46:21;17.87;48.86
77727;SHT30;68312;53.502;10.030;2023-06-04T07:48:47;17.82;49.51
77727;SHT30;68312;53.502;10.030;2023-06-04T07:51:13;17.94;50.79
77727;SHT30;68312;53.502;10.030;2023-06-04T07:53:39;18.27;47.93
77727;SHT30;68312;53.502;10.030;2023-06-04T07:56:05;18.41;48.89
77727;SHT30;68312;53.502;10.030;2023-06-04T07:58:31;18.27;48.96
77727;SHT30;68312;53.502;10.030;2023-06-04T08:00:57;18.42;49.11
77727;SHT30;68312;53.502;10.030;2023-06-04T08:03:25;18.56;48.55
77727;SHT30;68312;53.502;10.030;2023-06-04T08:05:51;18.93;46.53
77727;SHT30;68312;53.502;10.030;2023-06-04T08:08:16;19.19;46.99
77727;SHT30;68312;53.502;10.030;2023-06-04T08:10:42;19.28;45.91
77727;SHT30;68312;53.502;10.030;2023-06-04T08:13:08;19.51;45.32
77727;SHT30;68312;53.502;10.030;2023-06-04T08:15:33;19.64;46.18
77727;SHT30;68312;53.502;10.030;2023-06-04T08:17:59;20.06;47.34
77727;SHT30;68312;53.502;10.030;2023-06-04T08:20:24;20.12;43.48
77727;SHT30;68312;53.502;10.030;2023-06-04T08:22:50;20.12;43.78
77727;SHT30;68312;53.502;10.030;2023-06-04T08:25:15;20.25;41.51
77727;SHT30;68312;53.502;10.030;2023-06-04T08:27:41;20.46;41.88
77727;SHT30;68312;53.502;10.030;2023-06-04T08:30:08;20.66;39.87
77727;SHT30;68312;53.502;10.030;2023-06-04T08:32:34;20.80;39.86
77727;SHT30;68312;53.502;10.030;2023-06-04T08:34:59;20.16;41.92
77727;SHT30;68312;53.502;10.030;2023-06-04T08:37:25;20.77;42.01
77727;SHT30;68312;53.502;10.030;2023-06-04T08:39:51;21.41;41.59
77727;SHT30;68312;53.502;10.030;2023-06-04T08:42:41;22.22;39.25
77727;SHT30;68312;53.502;10.030;2023-06-04T08:45:13;23.33;39.30
77727;SHT30;68312;53.502;10.030;2023-06-04T08:47:49;23.65;35.68
77727;SHT30;68312;53.502;10.030;2023-06-04T08:50:19;23.28;34.95
77727;SHT30;68312;53.502;10.030;2023-06-04T08:52:53;23.37;35.83
77727;SHT30;68312;53.502;10.030;2023-06-04T08:55:20;23.67;37.31
77727;SHT30;68312;53.502;10.030;2023-06-04T08:57:50;24.28;34.47
77727;SHT30;68312;53.502;10.030;2023-06-04T09:00:16;24.50;34.30
77727;SHT30;68312;53.502;10.030;2023-06-04T09:02:43;24.94;33.52
77727;SHT30;68312;53.502;10.030;2023-06-04T09:05:09;24.52;32.64
77727;SHT30;68312;53.502;10.030;2023-06-04T09:07:41;24.37;35.11
77727;SHT30;68312;53.502;10.030;2023-06-04T09:10:09;24.55;33.99
77727;SHT30;68312;53.502;10.030;2023-06-04T09:12:37;25.06;32.69
77727;SHT30;68312;53.502;10.030;2023-06-04T09:15:07;24.61;33.33
77727;SHT30;68312;53.502;10.030;2023-06-04T09:17:33;24.91;33.18
77727;SHT30;68312;53.502;10.030;2023-06-04T09:19:59;25.18;33.53
77727;SHT30;68312;53.502;10.030;2023-06-04T09:22:37;25.14;33.02
77727;SHT30;68312;53.502;10.030;2023-06-04T09:25:07;25.25;32.99
77727;SHT30;68312;53.502;10.030;2023-06-04T09:27:47;25.06;32.23
77727;SHT30;68312;53.502;10.030;2023-06-04T09:30:13;24.64;31.77
77727;SHT30;68312;53.502;10.030;2023-06-04T09:32:39;25.25;34.12
77727;SHT30;68312;53.502;10.030;2023-06-04T09:35:19;26.18;33.90
77727;SHT30;68312;53.502;10.030;2023-06-04T09:37:57;26.67;31.25
77727;SHT30;68312;53.502;10.030;2023-06-04T09:40:23;26.72;27.72
77727;SHT30;68312;53.502;10.030;2023-06-04T09:42:50;26.18;29.16
77727;SHT30;68312;53.502;10.030;2023-06-04T09:45:27;25.37;29.46
77727;SHT30;68312;53.502;10.030;2023-06-04T09:47:53;25.46;29.52
77727;SHT30;68312;53.502;10.030;2023-06-04T09:50:30;25.27;29.93
77727;SHT30;68312;53.502;10.030;2023-06-04T09:52:56;25.35;29.35
77727;SHT30;68312;53.502;10.030;2023-06-04T09:55:22;25.76;30.68
77727;SHT30;68312;53.502;10.030;2023-06-04T09:57:52;26.17;33.04
77727;SHT30;68312;53.502;10.030;2023-06-04T10:00:21;26.27;27.94
77727;SHT30;68312;53.502;10.030;2023-06-04T10:02:51;25.80;28.68
77727;SHT30;68312;53.502;10.030;2023-06-04T10:05:21;25.15;30.87
77727;SHT30;68312;53.502;10.030;2023-06-04T10:07:51;25.41;31.67
77727;SHT30;68312;53.502;10.030;2023-06-04T10:10:24;26.48;29.11
77727;SHT30;68312;53.502;10.030;2023-06-04T10:13:02;25.97;28.23
77727;SHT30;68312;53.502;10.030;2023-06-04T10:15:32;25.66;29.09
77727;SHT30;68312;53.502;10.030;2023-06-04T10:18:02;26.03;29.57
77727;SHT30;68312;53.502;10.030;2023-06-04T10:20:28;26.28;27.80
77727;SHT30;68312;53.502;10.030;2023-06-04T10:22:54;26.72;30.18
77727;SHT30;68312;53.502;10.030;2023-06-04T10:25:20;26.62;26.26
77727;SHT30;68312;53.502;10.030;2023-06-04T10:27:46;26.07;27.47
77727;SHT30;68312;53.502;10.030;2023-06-04T10:30:12;25.38;29.17
77727;SHT30;68312;53.502;10.030;2023-06-04T10:32:38;25.29;29.37
77727;SHT30;68312;53.502;10.030;2023-06-04T10:35:05;26.44;31.62
77727;SHT30;68312;53.502;10.030;2023-06-04T10:37:30;26.54;29.64
77727;SHT30;68312;53.502;10.030;2023-06-04T10:39:57;26.34;27.36
77727;SHT30;68312;53.502;10.030;2023-06-04T10:42:24;25.98;27.90
77727;SHT30;68312;53.502;10.030;2023-06-04T10:44:54;26.14;27.31
77727;SHT30;68312;53.502;10.030;2023-06-04T10:47:25;25.79;26.71
77727;SHT30;68312;53.502;10.030;2023-06-04T10:49:54;25.69;28.56
77727;SHT30;68312;53.502;10.030;2023-06-04T10:52:21;25.45;27.44
77727;SHT30;68312;53.502;10.030;2023-06-04T10:54:47;25.22;28.41
77727;SHT30;68312;53.502;10.030;2023-06-04T10:57:17;25.61;28.47
77727;SHT30;68312;53.502;10.030;2023-06-04T10:59:59;25.39;28.46
77727;SHT30;68312;53.502;10.030;2023-06-04T11:02:26;26.59;28.06
77727;SHT30;68312;53.502;10.030;2023-06-04T11:05:02;26.89;28.83
77727;SHT30;68312;53.502;10.030;2023-06-04T11:07:29;27.03;29.36
77727;SHT30;68312;53.502;10.030;2023-06-04T11:09:55;26.44;26.20
77727;SHT30;68312;53.502;10.030;2023-06-04T11:12:20;26.62;27.39
77727;SHT30;68312;53.502;10.030;2023-06-04T11:14:56;26.18;27.26
77727;SHT30;68312;53.502;10.030;2023-06-04T11:17:22;25.52;28.63
77727;SHT30;68312;53.502;10.030;2023-06-04T11:19:48;25.69;28.96
77727;SHT30;68312;53.502;10.030;2023-06-04T11:22:13;26.38;27.52
77727;SHT30;68312;53.502;10.030;2023-06-04T11:24:39;25.77;26.77
77727;SHT30;68312;53.502;10.030;2023-06-04T11:27:05;26.06;30.75
77727;SHT30;68312;53.502;10.030;2023-06-04T11:29:30;26.00;28.40
77727;SHT30;68312;53.502;10.030;2023-06-04T11:31:56;25.49;29.09
77727;SHT30;68312;53.502;10.030;2023-06-04T11:34:26;25.70;28.64
77727;SHT30;68312;53.502;10.030;2023-06-04T11:36:53;25.85;27.81
77727;SHT30;68312;53.502;10.030;2023-06-04T11:39:22;26.48;29.78
77727;SHT30;68312;53.502;10.030;2023-06-04T11:41:50;26.21;27.35
77727;SHT30;68312;53.502;10.030;2023-06-04T11:44:19;26.45;28.50
77727;SHT30;68312;53.502;10.030;2023-06-04T11:46:45;25.75;28.38
77727;SHT30;68312;53.502;10.030;2023-06-04T11:49:15;25.34;28.94
77727;SHT30;68312;53.502;10.030;2023-06-04T11:51:48;25.22;29.87
77727;SHT30;68312;53.502;10.030;2023-06-04T11:54:21;25.89;29.54
77727;SHT30;68312;53.502;10.030;2023-06-04T11:56:49;26.18;29.03
77727;SHT30;68312;53.502;10.030;2023-06-04T11:59:17;25.90;28.39
77727;SHT30;68312;53.502;10.030;2023-06-04T12:01:45;25.94;31.78
77727;SHT30;68312;53.502;10.030;2023-06-04T12:04:20;26.31;28.93
77727;SHT30;68312;53.502;10.030;2023-06-04T12:07:10;25.90;29.13
77727;SHT30;68312;53.502;10.030;2023-06-04T12:09:36;26.08;29.51
77727;SHT30;68312;53.502;10.030;2023-06-04T12:12:06;26.34;28.37
77727;SHT30;68312;53.502;10.030;2023-06-04T12:14:33;26.40;29.78
77727;SHT30;68312;53.502;10.030;2023-06-04T12:17:09;25.92;29.33
77727;SHT30;68312;53.502;10.030;2023-06-04T12:19:46;25.46;29.94
77727;SHT30;68312;53.502;10.030;2023-06-04T12:22:13;25.96;32.50
77727;SHT30;68312;53.502;10.030;2023-06-04T12:24:56;26.30;30.10
77727;SHT30;68312;53.502;10.030;2023-06-04T12:27:24;26.49;28.55
77727;SHT30;68312;53.502;10.030;2023-06-04T12:30:01;25.75;29.43
77727;SHT30;68312;53.502;10.030;2023-06-04T12:32:29;24.94;29.90
77727;SHT30;68312;53.502;10.030;2023-06-04T12:34:55;24.97;31.93
77727;SHT30;68312;53.502;10.030;2023-06-04T12:37:22;25.14;30.68
77727;SHT30;68312;53.502;10.030;2023-06-04T12:39:48;24.81;30.79
77727;SHT30;68312;53.502;10.030;2023-06-04T12:42:14;24.61;30.93
77727;SHT30;68312;53.502;10.030;2023-06-04T12:44:40;24.57;32.02
77727;SHT30;68312;53.502;10.030;2023-06-04T12:47:07;24.63;31.87
77727;SHT30;68312;53.502;10.030;2023-06-04T12:49:33;24.83;31.23
77727;SHT30;68312;53.502;10.030;2023-06-04T12:51:59;24.94;31.85
77727;SHT30;68312;53.502;10.030;2023-06-04T12:54:25;25.18;31.04
77727;SHT30;68312;53.502;10.030;2023-06-04T12:56:50;25.04;30.49
77727;SHT30;68312;53.502;10.030;2023-06-04T12:59:16;24.86;31.09
77727;SHT30;68312;53.502;10.030;2023-06-04T13:01:42;24.80;30.33
77727;SHT30;68312;53.502;10.030;2023-06-04T13:04:07;24.83;31.30
77727;SHT30;68312;53.502;10.030;2023-06-04T13:06:35;25.22;32.38
77727;SHT30;68312;53.502;10.030;2023-06-04T13:09:05;25.79;29.67
77727;SHT30;68312;53.502;10.030;2023-06-04T13:11:31;26.20;32.96
77727;SHT30;68312;53.502;10.030;2023-06-04T13:13:57;25.94;28.50
77727;SHT30;68312;53.502;10.030;2023-06-04T13:16:22;25.58;29.46
77727;SHT30;68312;53.502;10.030;2023-06-04T13:18:48;25.96;29.10
77727;SHT30;68312;53.502;10.030;2023-06-04T13:21:13;26.07;31.26
77727;SHT30;68312;53.502;10.030;2023-06-04T13:23:39;26.47;31.38
77727;SHT30;68312;53.502;10.030;2023-06-04T13:26:04;26.92;30.78
77727;SHT30;68312;53.502;10.030;2023-06-04T13:28:30;26.88;27.84
77727;SHT30;68312;53.502;10.030;2023-06-04T13:30:55;26.98;29.65
77727;SHT30;68312;53.502;10.030;2023-06-04T13:33:24;27.02;33.29
77727;SHT30;68312;53.502;10.030;2023-06-04T13:35:49;27.09;29.87
77727;SHT30;68312;53.502;10.030;2023-06-04T13:38:14;26.96;27.85
77727;SHT30;68312;53.502;10.030;2023-06-04T13:40:40;26.74;28.58
77727;SHT30;68312;53.502;10.030;2023-06-04T13:43:05;26.89;27.73
77727;SHT30;68312;53.502;10.030;2023-06-04T13:45:31;26.13;29.18
77727;SHT30;68312;53.502;10.030;2023-06-04T13:47:56;26.17;29.22
77727;SHT30;68312;53.502;10.030;2023-06-04T13:50:22;25.96;29.27
77727;SHT30;68312;53.502;10.030;2023-06-04T13:52:47;25.79;29.44
77727;SHT30;68312;53.502;10.030;2023-06-04T13:55:13;25.89;28.66
77727;SHT30;68312;53.502;10.030;2023-06-04T13:57:39;26.06;28.98
77727;SHT30;68312;53.502;10.030;2023-06-04T14:00:05;26.49;28.45
77727;SHT30;68312;53.502;10.030;2023-06-04T14:02:31;27.17;27.38
77727;SHT30;68312;53.502;10.030;2023-06-04T14:04:56;27.74;26.61
77727;SHT30;68312;53.502;10.030;2023-06-04T14:07:22;27.58;26.88
77727;SHT30;68312;53.502;10.030;2023-06-04T14:09:47;27.42;26.79
77727;SHT30;68312;53.502;10.030;2023-06-04T14:12:13;26.83;26.62
77727;SHT30;68312;53.502;10.030;2023-06-04T14:14:38;27.13;26.51
77727;SHT30;68312;53.502;10.030;2023-06-04T14:17:05;27.76;30.18
77727;SHT30;68312;53.502;10.030;2023-06-04T14:19:34;28.38;25.80
77727;SHT30;68312;53.502;10.030;2023-06-04T14:22:01;28.42;26.30
77727;SHT30;68312;53.502;10.030;2023-06-04T14:24:27;28.52;26.00
77727;SHT30;68312;53.502;10.030;2023-06-04T14:26:53;28.05;26.16
77727;SHT30;68312;53.502;10.030;2023-06-04T14:29:18;27.39;26.99
77727;SHT30;68312;53.502;10.030;2023-06-04T14:31:43;27.19;27.30
77727;SHT30;68312;53.502;10.030;2023-06-04T14:34:09;27.37;27.02
77727;SHT30;68312;53.502;10.030;2023-06-04T14:36:35;26.62;28.60
77727;SHT30;68312;53.502;10.030;2023-06-04T14:39:03;27.53;27.40
77727;SHT30;68312;53.502;10.030;2023-06-04T14:41:28;27.16;27.38
77727;SHT30;68312;53.502;10.030;2023-06-04T14:43:54;27.02;27.76
77727;SHT30;68312;53.502;10.030;2023-06-04T14:46:19;26.93;26.97
77727;SHT30;68312;53.502;10.030;2023-06-04T14:48:45;27.63;30.93
77727;SHT30;68312;53.502;10.030;2023-06-04T14:51:10;27.68;27.79
77727;SHT30;68312;53.502;10.030;2023-06-04T14:53:36;27.46;27.70
77727;SHT30;68312;53.502;10.030;2023-06-04T14:56:01;27.02;27.83
77727;SHT30;68312;53.502;10.030;2023-06-04T14:58:27;26.72;28.40
77727;SHT30;68312;53.502;10.030;2023-06-04T15:00:52;26.45;28.28
77727;SHT30;68312;53.502;10.030;2023-06-04T15:03:17;26.30;29.78
77727;SHT30;68312;53.502;10.030;2023-06-04T15:05:43;26.81;31.03
77727;SHT30;68312;53.502;10.030;2023-06-04T15:08:08;26.68;28.28
77727;SHT30;68312;53.502;10.030;2023-06-04T15:10:34;26.83;28.55
77727;SHT30;68312;53.502;10.030;2023-06-04T15:12:59;26.62;29.18
77727;SHT30;68312;53.502;10.030;2023-06-04T15:15:25;25.93;29.20
77727;SHT30;68312;53.502;10.030;2023-06-04T15:17:51;25.42;30.73
77727;SHT30;68312;53.502;10.030;2023-06-04T15:20:17;25.87;30.44
77727;SHT30;68312;53.502;10.030;2023-06-04T15:22:43;26.06;31.08